Time;durP1;ratioP1;P1;durP2;ratioP2;P2;SDS_P1;SDS_P2;PMS_P1;PMS_P2;Temp;Humidity;BMP_temperature;BMP_pressure;BME280_temperature;BME280_humidity;BME280_pressure;Samples;Min_cycle;Max_cycle;Signal;HPM_P1;HPM_P2
2023/06/09 00:01:04;;;;;;;6.07;2.92;;;;;;;;;;5063823;28;42621;-36
2023/06/09 00:03:32;;;;;;;5.95;2.90;;;;;;;;;;5062782;28;44007;-37
2023/06/09 00:06:02;;;;;;;9.60;3.40;;;;;;;;;;5062748;28;41379;-37
2023/06/09 00:08:31;;;;;;;5.18;2.95;;;;;;;;;;5046300;28;42118;-37
2023/06/09 00:10:59;;;;;;;5.75;3.03;;;;;;;;;;5063572;28;43274;-34
2023/06/09 00:13:27;;;;;;;5.82;3.08;;;;;;;;;;5051931;28;40913;-38
2023/06/09 00:15:58;;;;;;;4.05;2.67;;;;;;;;;;5047907;28;43983;-36
2023/06/09 00:18:25;;;;;;;4.53;3.03;;;;;;;;;;5064489;28;41578;-36
2023/06/09 00:20:53;;;;;;;6.03;3.65;;;;;;;;;;5064314;28;43112;-35
2023/06/09 00:23:23;;;;;;;4.53;3.03;;;;;;;;;;5056729;28;42830;-35
2023/06/09 00:25:51;;;;;;;5.28;3.03;;;;;;;;;;5069517;28;41260;-35
2023/06/09 00:28:19;;;;;;;6.28;3.28;;;;;;;;;;5060783;28;43114;-37
2023/06/09 00:30:47;;;;;;;4.60;2.45;;;;;;;;;;5063894;28;43340;-37
2023/06/09 00:33:15;;;;;;;7.10;3.00;;;;;;;;;;5052180;28;39186;-36
2023/06/09 00:35:42;;;;;;;6.22;3.30;;;;;;;;;;5051963;28;41783;-34
2023/06/09 00:38:11;;;;;;;7.28;3.10;;;;;;;;;;5036968;28;39067;-37
2023/06/09 00:40:40;;;;;;;6.88;3.15;;;;;;;;;;5050934;28;41489;-34
2023/06/09 00:43:08;;;;;;;4.85;2.78;;;;;;;;;;5059727;28;44528;-36
2023/06/09 00:45:36;;;;;;;6.07;3.10;;;;;;;;;;5055247;28;39953;-34
2023/06/09 00:48:07;;;;;;;8.18;3.15;;;;;;;;;;5053069;28;41937;-36
2023/06/09 00:50:34;;;;;;;7.68;3.10;;;;;;;;;;5070551;28;44926;-36
2023/06/09 00:53:02;;;;;;;5.70;2.95;;;;;;;;;;5052016;28;38643;-36
2023/06/09 00:55:31;;;;;;;6.40;2.58;;;;;;;;;;5071229;28;43361;-31
2023/06/09 00:58:01;;;;;;;8.60;2.95;;;;;;;;;;5066178;28;43891;-36
2023/06/09 01:00:29;;;;;;;5.75;2.80;;;;;;;;;;5045140;28;43227;-35
2023/06/09 01:03:00;;;;;;;6.47;3.00;;;;;;;;;;5071210;28;42719;-32
2023/06/09 01:05:29;;;;;;;4.97;2.58;;;;;;;;;;5051330;28;38904;-35
2023/06/09 01:07:58;;;;;;;4.45;2.70;;;;;;;;;;5036092;28;42926;-35
2023/06/09 01:10:27;;;;;;;5.95;3.08;;;;;;;;;;5062934;28;43551;-35
2023/06/09 01:12:58;;;;;;;5.57;3.03;;;;;;;;;;5050424;28;40106;-36
2023/06/09 01:15:28;;;;;;;5.07;2.42;;;;;;;;;;5032956;28;41705;-38
2023/06/09 01:17:56;;;;;;;5.75;2.80;;;;;;;;;;5032723;28;43054;-36
2023/06/09 01:20:27;;;;;;;6.97;2.92;;;;;;;;;;5036142;28;40245;-35
2023/06/09 01:22:58;;;;;;;7.28;2.80;;;;;;;;;;5053492;28;42875;-33
2023/06/09 01:25:31;;;;;;;5.78;3.00;;;;;;;;;;5039165;28;40428;-38
2023/06/09 01:28:00;;;;;;;4.93;2.75;;;;;;;;;;5064007;28;42551;-36
2023/06/09 01:30:29;;;;;;;5.22;2.92;;;;;;;;;;5043382;28;41882;-38
2023/06/09 01:32:58;;;;;;;4.70;2.78;;;;;;;;;;5047222;28;38990;-38
2023/06/09 01:35:26;;;;;;;5.38;3.03;;;;;;;;;;5065881;28;42445;-35
2023/06/09 01:37:56;;;;;;;5.13;3.17;;;;;;;;;;5067746;28;43496;-37
2023/06/09 01:40:26;;;;;;;5.15;2.85;;;;;;;;;;5061791;28;41358;-37
2023/06/09 01:42:57;;;;;;;5.40;3.08;;;;;;;;;;5063521;28;42728;-35
2023/06/09 01:45:25;;;;;;;5.85;3.20;;;;;;;;;;5044902;28;39752;-34
2023/06/09 01:47:53;;;;;;;4.53;3.08;;;;;;;;;;5037628;28;41361;-34
2023/06/09 01:50:23;;;;;;;4.22;2.63;;;;;;;;;;5048231;28;41738;-37
2023/06/09 01:52:52;;;;;;;5.45;2.85;;;;;;;;;;5048950;28;38650;-35
2023/06/09 01:55:21;;;;;;;7.25;3.05;;;;;;;;;;5044128;28;41438;-33
2023/06/09 01:57:50;;;;;;;4.30;2.58;;;;;;;;;;5041447;28;42898;-38
2023/06/09 02:00:20;;;;;;;5.65;2.83;;;;;;;;;;5041057;28;39995;-34
2023/06/09 02:02:48;;;;;;;6.50;3.55;;;;;;;;;;5053787;28;43367;-34
2023/06/09 02:05:17;;;;;;;4.85;2.72;;;;;;;;;;5048258;28;32277;-37
2023/06/09 02:07:45;;;;;;;6.60;3.25;;;;;;;;;;5066677;28;42244;-33
2023/06/09 02:10:13;;;;;;;8.63;3.42;;;;;;;;;;5047531;28;42210;-36
2023/06/09 02:12:41;;;;;;;5.15;2.80;;;;;;;;;;5062349;28;39907;-37
2023/06/09 02:15:09;;;;;;;8.27;2.78;;;;;;;;;;5037717;28;41287;-36
2023/06/09 02:17:39;;;;;;;7.35;2.72;;;;;;;;;;5066069;28;43299;-37
2023/06/09 02:20:08;;;;;;;4.68;2.80;;;;;;;;;;5065046;28;41372;-36
2023/06/09 02:22:36;;;;;;;9.63;3.30;;;;;;;;;;5046670;28;41058;-34
2023/06/09 02:25:07;;;;;;;6.13;2.97;;;;;;;;;;5046428;28;42119;-34
2023/06/09 02:27:35;;;;;;;3.97;2.45;;;;;;;;;;5028839;28;41739;-38
2023/06/09 02:30:03;;;;;;;5.20;2.85;;;;;;;;;;5043682;28;43632;-39
2023/06/09 02:32:32;;;;;;;3.90;2.63;;;;;;;;;;5053473;28;41343;-37
2023/06/09 02:35:01;;;;;;;5.22;2.63;;;;;;;;;;5049194;28;43170;-33
2023/06/09 02:37:31;;;;;;;7.75;3.17;;;;;;;;;;5058070;28;43513;-37
2023/06/09 02:39:59;;;;;;;6.25;3.00;;;;;;;;;;5041115;28;38602;-35
2023/06/09 02:42:27;;;;;;;5.85;3.00;;;;;;;;;;5047371;28;42912;-33
2023/06/09 02:44:55;;;;;;;5.50;2.88;;;;;;;;;;5030968;28;42647;-36
2023/06/09 02:47:23;;;;;;;4.85;2.88;;;;;;;;;;5042286;28;38887;-36
2023/06/09 02:49:51;;;;;;;5.72;2.97;;;;;;;;;;5029526;28;42028;-34
2023/06/09 02:52:20;;;;;;;6.78;3.22;;;;;;;;;;5054483;28;40363;-35
2023/06/09 02:54:48;;;;;;;6.38;3.35;;;;;;;;;;5055351;28;43732;-33
2023/06/09 02:57:17;;;;;;;4.97;2.97;;;;;;;;;;5043779;28;42542;-35
2023/06/09 02:59:45;;;;;;;5.38;2.72;;;;;;;;;;5040537;28;38807;-36
2023/06/09 03:02:15;;;;;;;7.35;3.28;;;;;;;;;;5034051;28;42526;-35
2023/06/09 03:04:45;;;;;;;5.00;3.10;;;;;;;;;;5046941;28;42472;-34
2023/06/09 03:07:14;;;;;;;7.30;3.10;;;;;;;;;;5065395;28;41280;-34
2023/06/09 03:09:44;;;;;;;4.45;2.92;;;;;;;;;;5047719;28;42128;-34
2023/06/09 03:12:12;;;;;;;7.35;3.08;;;;;;;;;;5045971;28;39967;-36
2023/06/09 03:14:40;;;;;;;8.70;2.90;;;;;;;;;;5045872;28;41750;-36
2023/06/09 03:17:09;;;;;;;7.20;2.95;;;;;;;;;;5047146;28;42140;-37
2023/06/09 03:19:37;;;;;;;4.82;2.95;;;;;;;;;;5046560;28;39148;-38
2023/06/09 03:22:05;;;;;;;6.40;3.00;;;;;;;;;;5047560;28;41013;-37
2023/06/09 03:24:36;;;;;;;5.03;3.03;;;;;;;;;;5044001;28;43081;-40
2023/06/09 03:27:07;;;;;;;5.95;3.00;;;;;;;;;;5035641;28;40787;-40
2023/06/09 03:29:34;;;;;;;5.82;2.70;;;;;;;;;;5049425;28;43620;-40
2023/06/09 03:32:02;;;;;;;5.72;3.03;;;;;;;;;;5053150;28;43693;-37
2023/06/09 03:34:31;;;;;;;6.93;3.28;;;;;;;;;;5037405;28;40021;-23
2023/06/09 03:37:03;;;;;;;6.88;3.10;;;;;;;;;;5046125;28;41776;-23
2023/06/09 03:39:30;;;;;;;7.63;3.03;;;;;;;;;;5062191;28;41704;-23
2023/06/09 03:41:59;;;;;;;5.13;3.28;;;;;;;;;;5042216;28;41192;-23
2023/06/09 03:44:28;;;;;;;5.85;3.58;;;;;;;;;;5036687;28;43624;-25
2023/06/09 03:46:56;;;;;;;5.88;3.10;;;;;;;;;;5026453;28;38763;-23
2023/06/09 03:49:24;;;;;;;6.72;2.90;;;;;;;;;;5027904;28;41632;-23
2023/06/09 03:51:52;;;;;;;5.78;3.03;;;;;;;;;;5044361;28;43409;-24
2023/06/09 03:54:20;;;;;;;6.60;3.17;;;;;;;;;;5028302;28;39196;-32
2023/06/09 03:56:48;;;;;;;7.30;3.40;;;;;;;;;;5028687;28;43003;-28
2023/06/09 03:59:17;;;;;;;6.68;3.30;;;;;;;;;;5039382;28;39432;-28
2023/06/09 04:01:48;;;;;;;6.35;3.30;;;;;;;;;;5043148;28;41245;-30
2023/06/09 04:04:17;;;;;;;5.70;2.90;;;;;;;;;;5027361;28;41878;-31
2023/06/09 04:06:45;;;;;;;5.85;3.38;;;;;;;;;;5027193;28;39920;-30
2023/06/09 04:09:20;;;;;;;7.88;3.60;;;;;;;;;;5025651;28;41703;-29
2023/06/09 04:11:48;;;;;;;6.00;3.08;;;;;;;;;;5036342;28;42158;-29
2023/06/09 04:14:16;;;;;;;6.45;3.03;;;;;;;;;;5029472;28;39876;-31
2023/06/09 04:16:45;;;;;;;5.95;3.17;;;;;;;;;;5052551;28;43533;-31
2023/06/09 04:19:14;;;;;;;7.03;3.45;;;;;;;;;;5037906;28;40645;-28
2023/06/09 04:21:43;;;;;;;5.70;3.15;;;;;;;;;;5034206;28;42306;-29
2023/06/09 04:24:11;;;;;;;5.63;3.20;;;;;;;;;;5026234;28;43236;-32
2023/06/09 04:26:43;;;;;;;6.32;3.28;;;;;;;;;;5031314;28;39138;-31
2023/06/09 04:29:12;;;;;;;6.22;3.25;;;;;;;;;;5025692;28;41880;-31
2023/06/09 04:31:42;;;;;;;5.85;3.13;;;;;;;;;;5032603;28;42363;-32
2023/06/09 04:34:12;;;;;;;6.90;3.10;;;;;;;;;;5026469;28;39984;-29
2023/06/09 04:36:45;;;;;;;6.60;3.85;;;;;;;;;;5030325;28;41323;-32
2023/06/09 04:39:15;;;;;;;6.22;3.65;;;;;;;;;;5026229;28;38579;-29
2023/06/09 04:41:47;;;;;;;6.15;3.15;;;;;;;;;;5028571;28;41673;-28
2023/06/09 04:44:15;;;;;;;7.30;3.55;;;;;;;;;;5046314;28;42544;-29
2023/06/09 04:46:46;;;;;;;5.18;2.95;;;;;;;;;;5031789;28;40164;-32
2023/06/09 04:49:15;;;;;;;6.88;3.78;;;;;;;;;;5037924;28;42200;-30
2023/06/09 04:51:46;;;;;;;5.13;3.45;;;;;;;;;;5027485;28;42558;-30
2023/06/09 04:54:20;;;;;;;7.00;2.97;;;;;;;;;;5026071;28;40347;-31
2023/06/09 04:56:52;;;;;;;6.05;3.65;;;;;;;;;;5026182;28;42278;-28
2023/06/09 04:59:22;;;;;;;7.50;3.15;;;;;;;;;;5045097;28;43199;-31
2023/06/09 05:01:52;;;;;;;6.65;3.72;;;;;;;;;;5064211;28;42177;-29
2023/06/09 05:04:21;;;;;;;5.65;3.67;;;;;;;;;;5039130;28;41925;-29
2023/06/09 05:06:48;;;;;;;9.27;3.55;;;;;;;;;;5032827;28;39180;-30
2023/06/09 05:09:17;;;;;;;8.52;4.05;;;;;;;;;;5030999;28;41442;-33
2023/06/09 05:11:46;;;;;;;6.63;3.25;;;;;;;;;;5043945;28;43052;-31
2023/06/09 05:14:14;;;;;;;7.03;3.10;;;;;;;;;;5053781;28;41166;-28
2023/06/09 05:16:45;;;;;;;4.57;2.95;;;;;;;;;;5048947;28;41301;-31
2023/06/09 05:19:15;;;;;;;6.38;3.72;;;;;;;;;;5051685;28;42997;-31
2023/06/09 05:21:45;;;;;;;8.30;3.63;;;;;;;;;;5049084;28;39712;-33
2023/06/09 05:24:13;;;;;;;7.30;3.40;;;;;;;;;;5048943;28;41731;-31
2023/06/09 05:26:42;;;;;;;8.23;3.70;;;;;;;;;;5043447;28;40309;-29
2023/06/09 05:29:11;;;;;;;5.68;3.55;;;;;;;;;;5039268;28;41596;-32
2023/06/09 05:31:39;;;;;;;6.82;3.33;;;;;;;;;;5038867;28;41763;-31
2023/06/09 05:34:07;;;;;;;8.73;3.90;;;;;;;;;;5067454;28;39947;-29
2023/06/09 05:36:36;;;;;;;7.35;3.70;;;;;;;;;;5038046;28;41823;-32
2023/06/09 05:39:06;;;;;;;6.70;3.78;;;;;;;;;;5047504;28;41870;-32
2023/06/09 05:41:34;;;;;;;8.85;3.70;;;;;;;;;;5050594;28;40244;-29
2023/06/09 05:44:02;;;;;;;6.28;3.70;;;;;;;;;;5053079;28;42905;-29
2023/06/09 05:46:31;;;;;;;6.82;3.85;;;;;;;;;;5054249;28;40912;-31
2023/06/09 05:48:59;;;;;;;8.77;3.97;;;;;;;;;;5054588;28;43559;-28
2023/06/09 05:51:27;;;;;;;6.60;3.95;;;;;;;;;;5051215;28;44298;-32
2023/06/09 05:53:55;;;;;;;9.88;4.50;;;;;;;;;;5046881;28;40486;-31
2023/06/09 05:56:23;;;;;;;7.97;4.57;;;;;;;;;;5051968;28;42725;-30
2023/06/09 05:58:52;;;;;;;8.15;4.18;;;;;;;;;;5055578;28;43270;-34
2023/06/09 06:01:19;;;;;;;6.32;3.70;;;;;;;;;;5049005;28;40429;-31
2023/06/09 06:03:49;;;;;;;6.55;3.40;;;;;;;;;;5058525;28;43649;-30
2023/06/09 06:06:17;;;;;;;7.82;3.88;;;;;;;;;;5060015;28;43321;-34
2023/06/09 06:08:45;;;;;;;7.75;4.35;;;;;;;;;;5057717;28;42710;-36
2023/06/09 06:11:13;;;;;;;5.63;4.03;;;;;;;;;;5052867;28;44516;-35
2023/06/09 06:13:41;;;;;;;7.95;4.25;;;;;;;;;;5065289;28;40351;-28
2023/06/09 06:16:09;;;;;;;10.50;4.32;;;;;;;;;;5061201;28;42335;-29
2023/06/09 06:18:37;;;;;;;8.13;4.13;;;;;;;;;;5066254;28;44132;-32
2023/06/09 06:21:06;;;;;;;10.32;4.60;;;;;;;;;;5064554;28;41142;-31
2023/06/09 06:23:35;;;;;;;13.20;4.75;;;;;;;;;;5046517;28;42663;-29
2023/06/09 06:26:03;;;;;;;14.32;5.38;;;;;;;;;;5059266;28;43440;-28
2023/06/09 06:28:31;;;;;;;11.75;5.00;;;;;;;;;;5052475;28;42794;-31
2023/06/09 06:30:59;;;;;;;11.70;5.10;;;;;;;;;;5050052;28;44009;-32
2023/06/09 06:33:29;;;;;;;15.38;5.07;;;;;;;;;;5054439;28;41738;-29
2023/06/09 06:35:57;;;;;;;7.88;4.50;;;;;;;;;;5062053;28;43679;-29
2023/06/09 06:38:26;;;;;;;11.98;4.57;;;;;;;;;;5065824;28;43136;-29
2023/06/09 06:40:54;;;;;;;13.15;4.95;;;;;;;;;;5046112;28;39609;-33
2023/06/09 06:43:22;;;;;;;19.17;4.88;;;;;;;;;;5063025;28;42966;-30
2023/06/09 06:45:58;;;;;;;14.15;4.82;;;;;;;;;;5045199;28;41841;-29
2023/06/09 06:48:27;;;;;;;15.57;5.57;;;;;;;;;;5053946;28;40323;-29
2023/06/09 06:50:55;;;;;;;15.15;6.03;;;;;;;;;;5063124;28;43471;-33
2023/06/09 06:53:23;;;;;;;12.20;4.88;;;;;;;;;;5051877;28;41404;-32
2023/06/09 06:55:52;;;;;;;11.52;6.05;;;;;;;;;;5047497;28;42896;-30
2023/06/09 06:58:20;;;;;;;14.25;5.35;;;;;;;;;;5045715;28;43077;-29
2023/06/09 07:00:48;;;;;;;14.43;6.13;;;;;;;;;;5061639;28;40075;-29
2023/06/09 07:03:16;;;;;;;12.43;5.65;;;;;;;;;;5061004;28;42811;-36
2023/06/09 07:05:44;;;;;;;17.40;5.82;;;;;;;;;;5055408;28;43108;-31
2023/06/09 07:08:12;;;;;;;15.93;5.82;;;;;;;;;;5051662;28;40406;-28
2023/06/09 07:10:40;;;;;;;15.57;6.00;;;;;;;;;;5051185;28;42419;-30
2023/06/09 07:13:10;;;;;;;15.43;6.00;;;;;;;;;;5044796;28;40895;-29
2023/06/09 07:15:38;;;;;;;17.10;5.80;;;;;;;;;;5052229;28;43195;-33
2023/06/09 07:18:07;;;;;;;12.13;5.25;;;;;;;;;;5049087;28;43796;-29
2023/06/09 07:20:35;;;;;;;11.48;5.30;;;;;;;;;;5060435;28;40365;-31
2023/06/09 07:23:03;;;;;;;12.65;5.18;;;;;;;;;;5056383;28;42638;-29
2023/06/09 07:25:32;;;;;;;17.65;6.18;;;;;;;;;;5030140;28;42475;-30
2023/06/09 07:28:00;;;;;;;15.10;6.00;;;;;;;;;;5047250;28;41345;-32
2023/06/09 07:30:29;;;;;;;11.75;5.53;;;;;;;;;;5044661;28;42583;-30
2023/06/09 07:32:57;;;;;;;14.23;6.05;;;;;;;;;;5044380;28;42303;-31
2023/06/09 07:35:26;;;;;;;17.67;6.15;;;;;;;;;;5053809;28;42425;-31
2023/06/09 07:37:54;;;;;;;11.38;5.60;;;;;;;;;;5053096;28;44414;-31
2023/06/09 07:40:22;;;;;;;12.35;6.22;;;;;;;;;;5055077;28;40625;-31
2023/06/09 07:42:51;;;;;;;11.38;6.40;;;;;;;;;;5046257;28;42899;-32
2023/06/09 07:45:19;;;;;;;10.00;5.90;;;;;;;;;;5044146;28;43603;-29
2023/06/09 07:47:48;;;;;;;11.23;5.60;;;;;;;;;;5045894;28;41960;-29
2023/06/09 07:50:17;;;;;;;14.27;6.28;;;;;;;;;;5043627;28;42734;-32
2023/06/09 07:52:45;;;;;;;11.95;5.90;;;;;;;;;;5044346;28;42945;-37
2023/06/09 07:55:13;;;;;;;8.00;5.85;;;;;;;;;;5058272;28;41168;-34
2023/06/09 07:57:43;;;;;;;9.30;5.78;;;;;;;;;;5047036;28;44636;-31
2023/06/09 08:00:12;;;;;;;9.10;5.47;;;;;;;;;;5057991;28;41366;-31
2023/06/09 08:02:42;;;;;;;12.60;5.63;;;;;;;;;;5045346;28;43656;-30
2023/06/09 08:05:18;;;;;;;10.18;5.43;;;;;;;;;;5026240;28;42772;-33
2023/06/09 08:07:46;;;;;;;10.80;6.00;;;;;;;;;;5059998;28;40298;-35
2023/06/09 08:10:14;;;;;;;11.45;5.82;;;;;;;;;;5050847;28;43523;-32
2023/06/09 08:12:42;;;;;;;12.95;5.25;;;;;;;;;;5059249;28;43486;-31
2023/06/09 08:15:11;;;;;;;12.27;5.25;;;;;;;;;;5064253;28;42265;-32
2023/06/09 08:17:39;;;;;;;12.20;5.97;;;;;;;;;;5048669;28;43599;-29
2023/06/09 08:20:07;;;;;;;9.82;5.93;;;;;;;;;;5026252;28;40298;-30
2023/06/09 08:22:37;;;;;;;13.20;5.55;;;;;;;;;;5044413;28;42604;-35
2023/06/09 08:25:06;;;;;;;9.30;5.30;;;;;;;;;;5043856;28;44053;-30
2023/06/09 08:27:34;;;;;;;10.43;5.43;;;;;;;;;;5047674;28;41371;-31
2023/06/09 08:30:03;;;;;;;9.10;5.18;;;;;;;;;;5047054;28;42307;-29
2023/06/09 08:32:31;;;;;;;10.23;5.60;;;;;;;;;;5064505;28;42979;-31
2023/06/09 08:35:03;;;;;;;10.13;5.32;;;;;;;;;;5053930;28;42608;-30
2023/06/09 08:37:32;;;;;;;9.18;5.82;;;;;;;;;;5057576;28;43081;-29
2023/06/09 08:40:04;;;;;;;9.95;5.47;;;;;;;;;;5064335;28;43076;-31
2023/06/09 08:42:32;;;;;;;6.50;5.13;;;;;;;;;;5064030;28;42633;-33
2023/06/09 08:45:01;;;;;;;8.13;5.40;;;;;;;;;;5063378;28;44419;-33
2023/06/09 08:47:34;;;;;;;12.07;5.53;;;;;;;;;;5052725;28;40432;-29
2023/06/09 08:50:02;;;;;;;7.72;4.68;;;;;;;;;;5067382;28;42535;-30
2023/06/09 08:52:31;;;;;;;7.95;5.97;;;;;;;;;;5048808;28;42724;-30
2023/06/09 08:54:59;;;;;;;9.10;5.13;;;;;;;;;;5051883;28;40479;-32
2023/06/09 08:57:28;;;;;;;9.00;5.15;;;;;;;;;;5056811;28;43228;-29
2023/06/09 08:59:56;;;;;;;7.70;5.28;;;;;;;;;;5068061;28;43888;-30
2023/06/09 09:02:25;;;;;;;7.82;5.10;;;;;;;;;;5066211;28;43396;-33
2023/06/09 09:04:53;;;;;;;7.30;5.10;;;;;;;;;;5054674;28;43902;-32
2023/06/09 09:07:21;;;;;;;7.55;5.38;;;;;;;;;;5066605;28;40699;-30
2023/06/09 09:09:49;;;;;;;7.97;5.05;;;;;;;;;;5067255;28;42638;-34
2023/06/09 09:12:17;;;;;;;9.00;5.40;;;;;;;;;;5044999;28;43034;-28
2023/06/09 09:14:47;;;;;;;7.28;4.90;;;;;;;;;;5058396;28;41391;-29
2023/06/09 09:17:15;;;;;;;5.82;5.00;;;;;;;;;;5066337;28;42938;-29
2023/06/09 09:19:45;;;;;;;7.95;5.10;;;;;;;;;;5067564;28;43483;-34
2023/06/09 09:22:13;;;;;;;6.90;4.90;;;;;;;;;;5068552;28;40602;-35
2023/06/09 09:24:41;;;;;;;5.20;4.43;;;;;;;;;;5067068;28;43272;-31
2023/06/09 09:27:15;;;;;;;7.15;5.65;;;;;;;;;;5063342;28;40753;-32
2023/06/09 09:29:43;;;;;;;7.65;5.20;;;;;;;;;;5053252;28;42665;-31
2023/06/09 09:32:13;;;;;;;6.03;4.70;;;;;;;;;;5053357;28;44024;-38
2023/06/09 09:34:41;;;;;;;7.20;5.07;;;;;;;;;;5062580;28;40634;-30
2023/06/09 09:37:12;;;;;;;9.82;5.35;;;;;;;;;;5067634;28;43828;-29
2023/06/09 09:39:47;;;;;;;6.97;4.78;;;;;;;;;;5050101;28;42961;-33
2023/06/09 09:42:15;;;;;;;8.70;5.40;;;;;;;;;;5053019;28;40400;-32
2023/06/09 09:44:44;;;;;;;6.07;5.07;;;;;;;;;;5064876;28;43746;-37
2023/06/09 09:47:15;;;;;;;6.82;4.80;;;;;;;;;;5067013;28;40165;-35
2023/06/09 09:49:50;;;;;;;7.20;5.32;;;;;;;;;;5066757;28;42995;-41
2023/06/09 09:52:23;;;;;;;7.88;5.65;;;;;;;;;;5062889;28;43596;-41
2023/06/09 09:54:52;;;;;;;9.30;5.18;;;;;;;;;;5057437;28;41395;-39
2023/06/09 09:57:20;;;;;;;6.97;5.13;;;;;;;;;;5054159;28;43618;-37
2023/06/09 09:59:48;;;;;;;7.20;5.00;;;;;;;;;;5058503;28;44368;-36
2023/06/09 10:02:22;;;;;;;7.97;5.28;;;;;;;;;;5066903;28;40616;-41
2023/06/09 10:04:50;;;;;;;8.73;5.07;;;;;;;;;;5064030;28;42626;-38
2023/06/09 10:07:21;;;;;;;7.35;5.30;;;;;;;;;;5063594;28;43588;-37
2023/06/09 10:09:49;;;;;;;8.57;5.38;;;;;;;;;;5059588;28;42542;-38
2023/06/09 10:12:18;;;;;;;6.72;5.43;;;;;;;;;;5065762;28;42818;-36
2023/06/09 10:14:46;;;;;;;6.63;5.35;;;;;;;;;;5055800;28;40389;-36
2023/06/09 10:17:14;;;;;;;6.30;4.57;;;;;;;;;;5048212;28;43182;-36
2023/06/09 10:19:44;;;;;;;8.85;5.70;;;;;;;;;;5066566;28;43635;-35
2023/06/09 10:22:11;;;;;;;5.15;4.65;;;;;;;;;;5066578;28;40628;-40
2023/06/09 10:24:39;;;;;;;5.93;5.32;;;;;;;;;;5066508;28;42574;-37
2023/06/09 10:27:07;;;;;;;6.55;5.53;;;;;;;;;;5062212;28;44450;-39
2023/06/09 10:29:35;;;;;;;7.35;5.63;;;;;;;;;;5053966;28;40219;-36
2023/06/09 10:32:03;;;;;;;5.38;4.85;;;;;;;;;;5065007;28;44618;-34
2023/06/09 10:34:32;;;;;;;5.75;5.15;;;;;;;;;;5064141;28;39995;-38
2023/06/09 10:37:01;;;;;;;7.38;5.22;;;;;;;;;;5052695;28;43646;-39
2023/06/09 10:39:31;;;;;;;5.72;4.82;;;;;;;;;;5063988;28;43539;-41
2023/06/09 10:42:00;;;;;;;7.13;5.35;;;;;;;;;;5050889;28;41521;-37
2023/06/09 10:44:30;;;;;;;5.32;4.72;;;;;;;;;;5064691;28;42718;-39
2023/06/09 10:46:58;;;;;;;6.80;5.00;;;;;;;;;;5064220;28;43726;-44
2023/06/09 10:49:42;;;;;;;5.63;5.10;;;;;;;;;;5053874;28;41088;-40
2023/06/09 10:52:25;;;;;;;5.63;4.97;;;;;;;;;;5062656;28;43556;-41
2023/06/09 10:55:08;;;;;;;5.85;5.18;;;;;;;;;;5065294;28;40254;-36
2023/06/09 10:57:37;;;;;;;6.65;5.65;;;;;;;;;;5049895;28;42869;-40
2023/06/09 11:00:15;;;;;;;6.00;5.40;;;;;;;;;;5053702;28;43066;-39
2023/06/09 11:02:47;;;;;;;5.75;5.15;;;;;;;;;;5062219;28;40460;-39
2023/06/09 11:05:15;;;;;;;6.28;5.55;;;;;;;;;;5045549;28;41324;-39
2023/06/09 11:07:45;;;;;;;8.57;5.80;;;;;;;;;;5066287;28;44398;-40
2023/06/09 11:10:34;;;;;;;6.30;5.20;;;;;;;;;;5053443;28;39189;-41
2023/06/09 11:13:24;;;;;;;6.35;5.38;;;;;;;;;;5045436;28;42817;-40
2023/06/09 11:16:04;;;;;;;6.63;5.47;;;;;;;;;;5060562;28;40251;-36
2023/06/09 11:18:32;;;;;;;5.90;5.03;;;;;;;;;;5065426;28;42771;-37
2023/06/09 11:21:18;;;;;;;7.55;5.25;;;;;;;;;;5065225;28;43134;-37
2023/06/09 11:24:00;;;;;;;5.97;4.93;;;;;;;;;;5062946;28;40968;-38
2023/06/09 11:26:28;;;;;;;5.65;5.10;;;;;;;;;;5055633;28;43599;-35
2023/06/09 11:28:58;;;;;;;6.03;5.07;;;;;;;;;;5058129;28;43855;-37
2023/06/09 11:31:26;;;;;;;6.72;5.47;;;;;;;;;;5060624;28;39771;-40
2023/06/09 11:33:55;;;;;;;5.40;4.82;;;;;;;;;;5065410;28;43242;-38
2023/06/09 11:36:25;;;;;;;7.97;5.70;;;;;;;;;;5062881;28;44395;-41
2023/06/09 11:38:53;;;;;;;6.93;5.40;;;;;;;;;;5065453;28;43135;-41
2023/06/09 11:41:24;;;;;;;5.95;5.32;;;;;;;;;;5062951;28;44061;-38
2023/06/09 11:43:53;;;;;;;5.53;5.10;;;;;;;;;;5059782;28;41422;-37
2023/06/09 11:46:22;;;;;;;5.45;4.93;;;;;;;;;;5056588;28;42446;-37
2023/06/09 11:49:00;;;;;;;5.93;5.40;;;;;;;;;;5065115;28;43071;-40
2023/06/09 11:51:28;;;;;;;5.97;5.20;;;;;;;;;;5063215;28;41022;-38
2023/06/09 11:53:56;;;;;;;6.57;5.00;;;;;;;;;;5064290;28;43670;-37
2023/06/09 11:56:25;;;;;;;5.78;5.22;;;;;;;;;;5046403;28;43631;-40
2023/06/09 11:58:53;;;;;;;6.50;5.45;;;;;;;;;;5054998;28;41439;-38
2023/06/09 12:01:24;;;;;;;6.35;5.75;;;;;;;;;;5060624;28;43176;-37
2023/06/09 12:03:52;;;;;;;6.05;5.07;;;;;;;;;;5060051;28;40482;-38
2023/06/09 12:06:20;;;;;;;6.00;5.43;;;;;;;;;;5064158;28;43161;-37
2023/06/09 12:08:48;;;;;;;6.25;5.30;;;;;;;;;;5065183;28;43991;-39
2023/06/09 12:11:16;;;;;;;6.00;5.28;;;;;;;;;;5050902;28;40454;-38
2023/06/09 12:13:47;;;;;;;5.95;5.45;;;;;;;;;;5065240;28;43680;-37
2023/06/09 12:16:15;;;;;;;6.28;5.65;;;;;;;;;;5061278;28;43379;-34
2023/06/09 12:18:45;;;;;;;6.55;5.38;;;;;;;;;;5064920;28;40528;-37
2023/06/09 12:21:13;;;;;;;6.80;5.50;;;;;;;;;;5051279;28;42686;-38
2023/06/09 12:23:41;;;;;;;5.75;5.25;;;;;;;;;;5062105;28;41248;-39
2023/06/09 12:26:09;;;;;;;6.05;5.55;;;;;;;;;;5058173;28;42164;-38
2023/06/09 12:28:38;;;;;;;6.50;5.93;;;;;;;;;;5063454;28;43928;-41
2023/06/09 12:31:09;;;;;;;6.13;5.20;;;;;;;;;;5055908;28;40833;-39
2023/06/09 12:33:37;;;;;;;6.10;5.50;;;;;;;;;;5063566;28;42320;-37
2023/06/09 12:36:07;;;;;;;5.43;4.93;;;;;;;;;;5054437;28;43108;-38
2023/06/09 12:38:35;;;;;;;6.10;5.47;;;;;;;;;;5060180;28;40355;-36
2023/06/09 12:41:04;;;;;;;5.95;5.45;;;;;;;;;;5061775;28;42164;-40
2023/06/09 12:43:43;;;;;;;6.65;5.18;;;;;;;;;;5062600;28;34156;-41
2023/06/09 12:46:11;;;;;;;6.07;5.47;;;;;;;;;;5055904;28;43287;-39
2023/06/09 12:48:53;;;;;;;5.95;5.35;;;;;;;;;;5063420;28;43459;-41
2023/06/09 12:51:23;;;;;;;6.25;5.45;;;;;;;;;;5053980;28;40565;-35
2023/06/09 12:53:51;;;;;;;7.43;5.40;;;;;;;;;;5064080;28;42698;-36
2023/06/09 12:56:19;;;;;;;5.85;5.25;;;;;;;;;;5055909;28;44480;-37
2023/06/09 12:58:47;;;;;;;6.45;5.65;;;;;;;;;;5047523;28;40811;-38
2023/06/09 13:01:15;;;;;;;6.22;5.72;;;;;;;;;;5053732;28;42979;-35
2023/06/09 13:03:43;;;;;;;6.20;5.55;;;;;;;;;;5063804;28;43568;-38
2023/06/09 13:06:11;;;;;;;5.80;5.30;;;;;;;;;;5050859;28;44133;-39
2023/06/09 13:08:40;;;;;;;6.03;5.47;;;;;;;;;;5064313;28;44448;-38
2023/06/09 13:11:09;;;;;;;7.72;5.60;;;;;;;;;;5053199;28;39929;-39
2023/06/09 13:13:37;;;;;;;6.32;5.72;;;;;;;;;;5062680;28;42693;-36
2023/06/09 13:16:05;;;;;;;5.50;5.07;;;;;;;;;;5063338;28;43307;-38
2023/06/09 13:18:33;;;;;;;6.45;5.85;;;;;;;;;;5045470;28;39342;-37
2023/06/09 13:21:05;;;;;;;6.13;5.40;;;;;;;;;;5063250;28;43434;-37
2023/06/09 13:23:33;;;;;;;6.28;5.63;;;;;;;;;;5063258;28;44016;-40
2023/06/09 13:26:02;;;;;;;6.03;5.53;;;;;;;;;;5052398;28;40363;-39
2023/06/09 13:28:30;;;;;;;6.60;5.43;;;;;;;;;;5060570;28;43503;-38
2023/06/09 13:30:58;;;;;;;6.18;5.55;;;;;;;;;;5056742;28;41484;-38
2023/06/09 13:33:26;;;;;;;5.82;5.32;;;;;;;;;;5053140;28;42447;-41
2023/06/09 13:35:54;;;;;;;6.82;5.50;;;;;;;;;;5058502;28;43534;-34
2023/06/09 13:38:22;;;;;;;6.68;5.93;;;;;;;;;;5062030;28;41948;-35
2023/06/09 13:40:50;;;;;;;5.03;4.63;;;;;;;;;;5047753;28;41263;-35
2023/06/09 13:43:19;;;;;;;6.10;5.50;;;;;;;;;;5066247;28;43691;-36
2023/06/09 13:45:47;;;;;;;6.63;5.70;;;;;;;;;;5064197;28;40901;-36
2023/06/09 13:48:16;;;;;;;6.18;5.63;;;;;;;;;;5056295;28;43962;-36
2023/06/09 13:50:45;;;;;;;6.22;5.70;;;;;;;;;;5063267;28;40559;-40
2023/06/09 13:53:13;;;;;;;5.80;5.25;;;;;;;;;;5066475;28;43736;-37
2023/06/09 13:55:40;;;;;;;5.55;5.13;;;;;;;;;;5061007;28;43900;-36
2023/06/09 13:58:08;;;;;;;5.68;5.18;;;;;;;;;;5065275;28;41285;-38
2023/06/09 14:00:38;;;;;;;6.03;5.50;;;;;;;;;;5064596;28;42673;-40
2023/06/09 14:03:05;;;;;;;5.80;5.30;;;;;;;;;;5066541;28;43372;-38
2023/06/09 14:05:34;;;;;;;6.15;5.20;;;;;;;;;;5047594;28;40438;-38
2023/06/09 14:08:02;;;;;;;5.78;5.28;;;;;;;;;;5049158;28;42046;-38
2023/06/09 14:10:30;;;;;;;6.10;5.50;;;;;;;;;;5059302;28;43806;-36
2023/06/09 14:12:58;;;;;;;6.13;5.63;;;;;;;;;;5052432;28;42831;-36
2023/06/09 14:15:26;;;;;;;5.10;4.70;;;;;;;;;;5063212;28;43326;-37
2023/06/09 14:17:58;;;;;;;7.22;5.82;;;;;;;;;;5066472;28;40362;-39
2023/06/09 14:20:27;;;;;;;6.53;5.93;;;;;;;;;;5062402;28;42827;-36
2023/06/09 14:22:56;;;;;;;6.15;5.55;;;;;;;;;;5066633;28;43325;-37
2023/06/09 14:25:26;;;;;;;6.25;5.65;;;;;;;;;;5058814;28;40490;-39
2023/06/09 14:27:54;;;;;;;6.22;5.68;;;;;;;;;;5063610;28;42641;-36
2023/06/09 14:30:22;;;;;;;6.22;5.55;;;;;;;;;;5046592;28;43485;-40
2023/06/09 14:32:51;;;;;;;6.45;5.40;;;;;;;;;;5061462;28;40122;-36
2023/06/09 14:35:23;;;;;;;6.25;5.75;;;;;;;;;;5059363;28;44240;-37
2023/06/09 14:37:52;;;;;;;6.28;5.70;;;;;;;;;;5063382;28;41280;-39
2023/06/09 14:40:20;;;;;;;5.85;5.35;;;;;;;;;;5063851;28;43167;-36
2023/06/09 14:42:49;;;;;;;5.68;5.18;;;;;;;;;;5045650;28;42160;-34
2023/06/09 14:45:21;;;;;;;6.65;5.80;;;;;;;;;;5065771;28;40475;-33
2023/06/09 14:47:51;;;;;;;6.30;5.80;;;;;;;;;;5047087;28;41643;-34
2023/06/09 14:50:24;;;;;;;6.63;6.03;;;;;;;;;;5064462;28;45178;-34
2023/06/09 14:52:55;;;;;;;6.00;5.40;;;;;;;;;;5063392;28;41288;-38